Аэропорт: Алыкель. Норильск

ICAO: UOOO

METAR:
2023-09-29 23:30:00
UOOO 292330Z 01013MPS 9000 -SN DRSN BKN004 M04/M04 Q1005 R01/39//60 NOSIG RMK QFE739/0986
METAR:
2023-09-29 20:46:00
TAF AMD UOOO 292046Z 2921/3021 01015G25MPS 3200 -SN BLSN OVC005 TEMPO 2921/3021 1000 -SN BLSN VV002 BECMG 3014/3017 35007G15MPS